createdAt,value
2018-06-29T00:00:14.459Z,77.81
2018-06-29T00:01:14.730Z,77.93
2018-06-29T00:02:15.201Z,78.01
2018-06-29T00:03:15.674Z,77.93
2018-06-29T00:04:16.144Z,77.98
2018-06-29T00:05:16.615Z,77.95
2018-06-29T00:06:17.089Z,78.10
2018-06-29T00:07:17.560Z,78.08
2018-06-29T00:08:18.032Z,78.10
2018-06-29T00:09:18.706Z,78.20
2018-06-29T00:10:18.975Z,78.12
2018-06-29T00:11:19.449Z,78.02
2018-06-29T00:12:19.922Z,78.07
2018-06-29T00:13:20.394Z,78.17
2018-06-29T00:14:20.866Z,78.26
2018-06-29T00:15:21.345Z,78.26
2018-06-29T00:16:21.812Z,78.29
2018-06-29T00:17:22.284Z,78.24
2018-06-29T00:18:22.755Z,78.21
2018-06-29T00:19:23.228Z,78.21
2018-06-29T00:20:23.700Z,78.26
2018-06-29T00:21:24.184Z,78.24
2018-06-29T00:22:24.703Z,78.19
2018-06-29T00:23:25.234Z,78.24
2018-06-29T00:24:25.595Z,78.26
2018-06-29T00:25:26.068Z,78.26
2018-06-29T00:26:26.541Z,78.16
2018-06-29T00:27:27.015Z,78.21
2018-06-29T00:28:27.487Z,78.19
2018-06-29T00:29:27.962Z,78.19
2018-06-29T00:30:28.438Z,78.18
2018-06-29T00:31:28.908Z,78.21
2018-06-29T00:32:29.433Z,78.23
2018-06-29T00:33:29.855Z,78.33
2018-06-29T00:34:30.331Z,78.28
2018-06-29T00:35:30.801Z,78.23
2018-06-29T00:36:31.277Z,78.23
2018-06-29T00:37:31.751Z,78.23
2018-06-29T00:38:32.222Z,78.23
2018-06-29T00:39:32.697Z,78.28
2018-06-29T00:40:33.174Z,78.25
2018-06-29T00:41:33.645Z,78.28
2018-06-29T00:42:34.173Z,78.28
2018-06-29T00:43:34.600Z,78.20
2018-06-29T00:44:35.067Z,78.23
2018-06-29T00:45:35.540Z,78.25
2018-06-29T00:46:36.016Z,78.30
2018-06-29T00:47:36.484Z,78.32
2018-06-29T00:48:36.958Z,78.27
2018-06-29T00:49:37.635Z,78.23
2018-06-29T00:50:37.904Z,78.27
2018-06-29T00:51:38.376Z,78.32
2018-06-29T00:52:38.848Z,78.34
2018-06-29T00:53:39.321Z,78.32
2018-06-29T00:54:39.864Z,78.37
2018-06-29T00:55:40.265Z,78.46
2018-06-29T00:56:40.938Z,78.66
2018-06-29T00:57:41.205Z,78.65
2018-06-29T00:58:41.675Z,78.53
2018-06-29T00:59:42.148Z,78.46
2018-06-29T01:00:42.619Z,78.51
2018-06-29T01:01:43.090Z,78.61
2018-06-29T01:02:43.560Z,78.51
2018-06-29T01:03:44.029Z,78.50
2018-06-29T01:04:44.499Z,78.50
2018-06-29T01:05:44.970Z,78.55
2018-06-29T01:06:45.440Z,78.50
2018-06-29T01:07:45.908Z,78.55
2018-06-29T01:08:46.381Z,78.57
2018-06-29T01:09:46.850Z,78.55
2018-06-29T01:10:47.319Z,78.60
2018-06-29T01:11:47.788Z,78.55
2018-06-29T01:12:48.265Z,78.64
2018-06-29T01:13:48.731Z,78.69
2018-06-29T01:14:49.202Z,78.69
2018-06-29T01:15:49.670Z,78.64
2018-06-29T01:16:50.140Z,78.66
2018-06-29T01:17:50.612Z,78.66
2018-06-29T01:18:51.080Z,78.69
2018-06-29T01:19:51.550Z,78.76
2018-06-29T01:20:52.020Z,78.76
2018-06-29T01:21:52.491Z,78.76
2018-06-29T01:22:52.961Z,78.74
2018-06-29T01:23:53.432Z,78.76
2018-06-29T01:24:53.904Z,78.74
2018-06-29T01:25:54.376Z,78.73
2018-06-29T01:26:54.844Z,78.74
2018-06-29T01:27:55.316Z,78.83
2018-06-29T01:28:55.787Z,78.87
2018-06-29T01:29:56.258Z,78.87
2018-06-29T01:30:56.730Z,78.87
2018-06-29T01:31:57.198Z,78.90
2018-06-29T01:32:57.720Z,78.90
2018-06-29T01:33:58.141Z,78.94
2018-06-29T01:34:58.614Z,78.99
2018-06-29T01:35:59.084Z,79.02
2018-06-29T01:36:59.558Z,79.06
2018-06-29T01:38:00.033Z,79.11
2018-06-29T01:39:00.501Z,79.06
2018-06-29T01:40:00.976Z,78.99
2018-06-29T01:41:01.447Z,78.99
2018-06-29T01:42:01.919Z,78.99
2018-06-29T01:43:02.388Z,79.06
2018-06-29T01:44:02.861Z,79.06
2018-06-29T01:45:03.334Z,79.06
2018-06-29T01:46:03.807Z,79.16
2018-06-29T01:47:04.280Z,79.20
2018-06-29T01:48:04.750Z,79.35
2018-06-29T01:49:05.224Z,79.34
2018-06-29T01:50:05.747Z,79.44
2018-06-29T01:51:06.170Z,79.41
2018-06-29T01:52:06.685Z,79.39
2018-06-29T01:53:07.116Z,79.34
2018-06-29T01:54:07.588Z,79.44
2018-06-29T01:55:08.060Z,79.44
2018-06-29T01:56:08.534Z,79.46
2018-06-29T01:57:09.008Z,79.43
2018-06-29T01:58:09.482Z,79.41
2018-06-29T01:59:09.956Z,79.34
2018-06-29T02:00:10.632Z,79.34
2018-06-29T02:01:10.902Z,79.29
2018-06-29T02:02:11.375Z,79.34
2018-06-29T02:03:11.847Z,79.34
2018-06-29T02:05:12.795Z,79.39
2018-06-29T02:06:13.270Z,79.29
2018-06-29T02:07:13.741Z,79.26
2018-06-29T02:08:14.215Z,79.24
2018-06-29T02:09:14.690Z,79.31
2018-06-29T02:10:15.164Z,79.21
2018-06-29T02:11:15.635Z,79.24
2018-06-29T02:12:16.109Z,79.17
2018-06-29T02:13:16.585Z,79.17
2018-06-29T02:14:17.058Z,79.19
2018-06-29T02:15:17.531Z,79.19
2018-06-29T02:16:18.004Z,79.19
2018-06-29T02:17:18.479Z,79.19
2018-06-29T02:18:18.952Z,79.14
2018-06-29T02:19:19.425Z,79.19
2018-06-29T02:20:19.899Z,79.14
2018-06-29T02:21:20.373Z,79.14
2018-06-29T02:22:20.846Z,79.14
2018-06-29T02:23:21.320Z,79.17
2018-06-29T02:24:21.793Z,79.14
2018-06-29T02:25:22.266Z,79.19
2018-06-29T02:26:22.739Z,79.14
2018-06-29T02:27:23.209Z,79.09
2018-06-29T02:28:23.682Z,79.14
2018-06-29T02:29:24.154Z,79.19
2018-06-29T02:30:24.715Z,79.19
2018-06-29T02:31:25.098Z,79.19
2018-06-29T02:32:25.570Z,79.24
2018-06-29T02:33:26.093Z,79.29
2018-06-29T02:34:26.513Z,79.33
2018-06-29T02:35:26.983Z,79.31
2018-06-29T02:36:27.452Z,79.35
2018-06-29T02:37:27.925Z,79.35
2018-06-29T02:38:28.395Z,79.35
2018-06-29T02:39:28.865Z,79.35
2018-06-29T02:40:29.335Z,79.37
2018-06-29T02:41:30.009Z,79.42
2018-06-29T02:42:30.276Z,79.66
2018-06-29T02:43:30.753Z,79.71
2018-06-29T02:44:31.216Z,79.64
2018-06-29T02:45:31.688Z,79.61
2018-06-29T02:46:32.160Z,79.71
2018-06-29T02:47:32.625Z,79.87
2018-06-29T02:48:33.094Z,79.92
2018-06-29T02:49:33.566Z,79.90
2018-06-29T02:50:34.036Z,79.95
2018-06-29T02:51:34.504Z,79.97
2018-06-29T02:52:34.976Z,80.13
2018-06-29T02:53:35.496Z,80.18
2018-06-29T02:54:35.916Z,80.22
2018-06-29T02:55:36.384Z,80.22
2018-06-29T02:56:36.855Z,80.15
2018-06-29T02:57:37.324Z,80.15
2018-06-29T02:58:37.796Z,80.20
2018-06-29T02:59:38.266Z,80.29
2018-06-29T03:00:38.734Z,80.32
2018-06-29T03:01:39.206Z,80.36
2018-06-29T03:02:39.678Z,80.31
2018-06-29T03:03:40.149Z,80.39
2018-06-29T03:04:40.620Z,80.34
2018-06-29T03:05:41.093Z,80.33
2018-06-29T03:07:42.036Z,80.46
2018-06-29T03:08:42.505Z,80.43
2018-06-29T03:09:43.176Z,80.43
2018-06-29T03:10:43.447Z,80.41
2018-06-29T03:11:43.917Z,80.50
2018-06-29T03:12:44.391Z,80.59
2018-06-29T03:13:44.860Z,80.64
2018-06-29T03:14:45.333Z,80.71
2018-06-29T03:15:45.802Z,80.74
2018-06-29T03:16:46.275Z,80.74
2018-06-29T03:17:46.750Z,80.80
2018-06-29T03:18:47.221Z,80.92
2018-06-29T03:19:47.693Z,80.97
2018-06-29T03:20:48.167Z,81.09
2018-06-29T03:21:48.640Z,81.07
2018-06-29T03:22:49.108Z,81.02
2018-06-29T03:23:49.582Z,81.07
2018-06-29T03:24:50.056Z,81.04
2018-06-29T03:25:50.527Z,81.09
2018-06-29T03:26:51.005Z,81.14
2018-06-29T03:27:51.473Z,81.16
2018-06-29T03:28:51.997Z,81.18
2018-06-29T03:29:52.418Z,81.16
2018-06-29T03:30:52.892Z,81.30
2018-06-29T03:31:53.566Z,81.35
2018-06-29T03:32:53.838Z,81.37
2018-06-29T03:33:54.311Z,81.34
2018-06-29T03:34:54.782Z,81.39
2018-06-29T03:35:55.257Z,81.39
2018-06-29T03:36:55.729Z,81.39
2018-06-29T03:37:56.202Z,81.39
2018-06-29T03:38:56.677Z,81.48
2018-06-29T03:39:57.150Z,81.49
2018-06-29T03:40:57.623Z,81.49
2018-06-29T03:41:58.098Z,81.48
2018-06-29T03:42:58.569Z,81.53
2018-06-29T03:43:59.042Z,81.58
2018-06-29T03:44:59.515Z,81.58
2018-06-29T03:46:00.194Z,81.67
2018-06-29T03:47:00.466Z,81.62
2018-06-29T03:48:00.937Z,81.65
2018-06-29T03:49:01.413Z,81.58
2018-06-29T03:50:01.887Z,81.65
2018-06-29T03:51:02.359Z,81.77
2018-06-29T03:52:02.834Z,81.86
2018-06-29T03:53:03.513Z,81.93
2018-06-29T03:54:03.780Z,82.09
2018-06-29T03:55:04.255Z,82.21
2018-06-29T03:56:04.728Z,82.30
2018-06-29T03:57:05.201Z,82.23
2018-06-29T03:58:05.675Z,82.17
2018-06-29T03:59:06.150Z,82.26
2018-06-29T04:00:06.628Z,82.33
2018-06-29T04:01:07.098Z,82.42
2018-06-29T04:02:07.570Z,82.47
2018-06-29T04:03:08.043Z,82.51
2018-06-29T04:04:08.566Z,82.51
2018-06-29T04:05:09.190Z,82.46
2018-06-29T04:06:09.460Z,82.51
2018-06-29T04:07:09.934Z,82.51
2018-06-29T04:08:10.405Z,82.61
2018-06-29T04:09:10.879Z,82.65
2018-06-29T04:10:11.347Z,82.65
2018-06-29T04:11:11.819Z,82.65
2018-06-29T04:12:12.290Z,82.72
2018-06-29T04:13:12.761Z,82.65
2018-06-29T04:14:13.283Z,82.63
2018-06-29T04:15:13.703Z,82.58
2018-06-29T04:16:14.173Z,82.63
2018-06-29T04:17:14.644Z,82.63
2018-06-29T04:18:15.113Z,82.63
2018-06-29T04:19:15.583Z,82.65
2018-06-29T04:20:16.055Z,82.61
2018-06-29T04:21:16.527Z,82.68
2018-06-29T04:22:16.996Z,82.79
2018-06-29T04:23:17.464Z,82.89
2018-06-29T04:24:17.934Z,82.77
2018-06-29T04:25:18.403Z,82.68
2018-06-29T04:26:18.876Z,82.57
2018-06-29T04:27:19.354Z,82.62
2018-06-29T04:28:19.813Z,82.64
2018-06-29T04:29:20.283Z,82.62
2018-06-29T04:30:20.760Z,82.66
2018-06-29T04:31:21.225Z,82.71
2018-06-29T04:32:21.695Z,82.69
2018-06-29T04:33:22.163Z,82.80
2018-06-29T04:34:22.634Z,82.73
2018-06-29T04:35:23.104Z,82.71
2018-06-29T04:36:23.575Z,82.71
2018-06-29T04:37:24.043Z,82.71
2018-06-29T04:38:24.517Z,82.73
2018-06-29T04:39:24.986Z,82.64
2018-06-29T04:40:25.457Z,82.67
2018-06-29T04:41:25.932Z,82.66
2018-06-29T04:42:26.397Z,82.67
2018-06-29T04:43:26.870Z,82.67
2018-06-29T04:44:27.339Z,82.76
2018-06-29T04:45:27.811Z,82.72
2018-06-29T04:46:28.281Z,82.86
2018-06-29T04:47:28.755Z,82.93
2018-06-29T04:48:29.229Z,82.81
2018-06-29T04:49:29.746Z,82.77
2018-06-29T04:50:30.170Z,82.86
2018-06-29T04:51:30.643Z,82.95
2018-06-29T04:52:31.112Z,83.00
2018-06-29T04:53:31.583Z,83.07
2018-06-29T04:54:32.056Z,83.21
2018-06-29T04:55:32.528Z,83.28
2018-06-29T04:56:32.999Z,83.37
2018-06-29T04:57:33.472Z,83.42
2018-06-29T04:58:33.946Z,83.30
2018-06-29T04:59:34.415Z,83.33
2018-06-29T05:00:34.887Z,83.33
2018-06-29T05:01:35.361Z,83.37
2018-06-29T05:02:35.833Z,83.38
2018-06-29T05:03:36.307Z,83.42
2018-06-29T05:04:36.778Z,83.42
2018-06-29T05:05:37.252Z,83.45
2018-06-29T05:06:37.725Z,83.52
2018-06-29T05:07:38.197Z,83.56
2018-06-29T05:08:38.669Z,83.57
2018-06-29T05:09:39.194Z,83.59
2018-06-29T05:10:39.618Z,83.53
2018-06-29T05:11:40.091Z,83.53
2018-06-29T05:12:40.567Z,83.58
2018-06-29T05:13:41.038Z,83.62
2018-06-29T05:14:41.563Z,83.64
2018-06-29T05:15:41.984Z,83.78
2018-06-29T05:16:42.456Z,83.90
2018-06-29T05:17:42.931Z,83.92
2018-06-29T05:18:43.407Z,83.95
2018-06-29T05:19:43.891Z,84.00
2018-06-29T05:20:44.354Z,83.95
2018-06-29T05:21:44.826Z,84.00
2018-06-29T05:22:45.299Z,84.00
2018-06-29T05:23:45.775Z,84.01
2018-06-29T05:24:46.296Z,83.92
2018-06-29T05:25:46.723Z,83.96
2018-06-29T05:26:47.195Z,84.13
2018-06-29T05:27:47.670Z,84.06
2018-06-29T05:28:48.144Z,84.20
2018-06-29T05:29:48.667Z,84.18
2018-06-29T05:30:49.089Z,84.20
2018-06-29T05:31:49.564Z,84.32
2018-06-29T05:32:50.037Z,84.34
2018-06-29T05:33:50.511Z,84.39
2018-06-29T05:34:50.983Z,84.35
2018-06-29T05:35:51.460Z,84.53
2018-06-29T05:36:51.928Z,84.68
2018-06-29T05:37:52.401Z,84.63
2018-06-29T05:38:52.872Z,84.59
2018-06-29T05:39:53.345Z,84.73
2018-06-29T05:40:53.818Z,84.73
2018-06-29T05:41:54.288Z,84.92
2018-06-29T05:42:54.761Z,84.96
2018-06-29T05:43:55.235Z,85.01
2018-06-29T05:44:55.755Z,85.04
2018-06-29T05:45:56.174Z,85.15
2018-06-29T05:46:56.693Z,85.29
2018-06-29T05:47:57.116Z,85.29
2018-06-29T05:48:57.590Z,85.30
2018-06-29T05:49:58.058Z,85.21
2018-06-29T05:50:58.527Z,85.30
2018-06-29T05:51:59.201Z,85.42
2018-06-29T05:52:59.491Z,85.37
2018-06-29T05:53:59.938Z,85.28
2018-06-29T05:55:00.417Z,85.08
2018-06-29T05:56:00.880Z,85.07
2018-06-29T05:57:01.349Z,85.07
2018-06-29T05:58:01.819Z,85.18
2018-06-29T05:59:02.292Z,85.28
2018-06-29T06:00:02.809Z,85.26
2018-06-29T06:01:03.233Z,85.24
2018-06-29T06:02:03.717Z,85.33
2018-06-29T06:03:04.170Z,85.38
2018-06-29T06:04:04.640Z,85.43
2018-06-29T06:05:05.116Z,85.52
2018-06-29T06:06:05.587Z,85.52
2018-06-29T06:07:06.053Z,85.55
2018-06-29T06:08:06.524Z,85.44
2018-06-29T06:09:06.995Z,85.35
2018-06-29T06:10:07.528Z,85.26
2018-06-29T06:11:07.937Z,85.17
2018-06-29T06:12:08.414Z,85.15
2018-06-29T06:13:08.877Z,85.18
2018-06-29T06:14:09.352Z,85.04
2018-06-29T06:15:09.821Z,85.18
2018-06-29T06:16:10.360Z,85.34
2018-06-29T06:17:10.765Z,85.34
2018-06-29T06:18:11.237Z,85.42
2018-06-29T06:19:11.707Z,85.51
2018-06-29T06:20:12.180Z,85.47
2018-06-29T06:21:12.651Z,85.43
2018-06-29T06:22:13.123Z,85.39
2018-06-29T06:24:14.072Z,85.46
2018-06-29T06:25:14.543Z,85.40
2018-06-29T06:26:15.014Z,85.49
2018-06-29T06:27:15.687Z,85.58
2018-06-29T06:28:15.962Z,85.70
2018-06-29T06:29:16.434Z,85.88
2018-06-29T06:30:16.904Z,85.84
2018-06-29T06:31:17.377Z,85.76
2018-06-29T06:32:17.850Z,85.72
2018-06-29T06:33:18.327Z,85.70
2018-06-29T06:34:18.797Z,85.81
2018-06-29T06:35:19.270Z,85.93
2018-06-29T06:36:19.745Z,85.89
2018-06-29T06:37:20.219Z,85.89
2018-06-29T06:38:20.691Z,85.95
2018-06-29T06:39:21.165Z,85.90
2018-06-29T06:40:21.639Z,85.86
2018-06-29T06:41:22.116Z,85.68
2018-06-29T06:42:22.588Z,85.60
2018-06-29T06:43:23.061Z,85.65
2018-06-29T06:44:23.541Z,85.65
2018-06-29T06:45:24.009Z,85.70
2018-06-29T06:46:24.484Z,85.70
2018-06-29T06:47:24.958Z,85.64
2018-06-29T06:48:25.431Z,85.65
2018-06-29T06:49:25.905Z,85.63
2018-06-29T06:50:26.378Z,85.59
2018-06-29T06:51:26.853Z,85.52
2018-06-29T06:52:27.326Z,85.55
2018-06-29T06:53:27.798Z,85.60
2018-06-29T06:54:28.273Z,85.69
2018-06-29T06:55:28.746Z,85.69
2018-06-29T06:56:29.222Z,85.63
2018-06-29T06:57:29.692Z,85.70
2018-06-29T06:58:30.162Z,85.75
2018-06-29T06:59:30.678Z,85.64
2018-06-29T07:00:31.110Z,85.69
2018-06-29T07:01:31.580Z,85.54
2018-06-29T07:02:32.053Z,85.36
2018-06-29T07:03:32.525Z,85.27
2018-06-29T07:04:32.999Z,85.28
2018-06-29T07:05:33.468Z,85.32
2018-06-29T07:06:33.937Z,85.46
2018-06-29T07:07:34.408Z,85.44
2018-06-29T07:08:34.883Z,85.38
2018-06-29T07:09:35.349Z,85.36
2018-06-29T07:10:35.821Z,85.29
2018-06-29T07:11:36.290Z,85.23
2018-06-29T07:12:36.789Z,85.17
2018-06-29T07:13:37.231Z,85.04
2018-06-29T07:14:37.703Z,84.81
2018-06-29T07:15:38.174Z,84.73
2018-06-29T07:16:38.640Z,84.71
2018-06-29T07:17:39.111Z,84.83
2018-06-29T07:18:39.581Z,84.85
2018-06-29T07:19:40.052Z,84.79
2018-06-29T07:20:40.523Z,84.64
2018-06-29T07:21:40.993Z,84.52
2018-06-29T07:22:41.464Z,84.41
2018-06-29T07:23:41.946Z,84.37
2018-06-29T07:24:42.409Z,84.30
2018-06-29T07:25:42.876Z,84.28
2018-06-29T07:26:43.345Z,84.47
2018-06-29T07:27:44.020Z,84.45
2018-06-29T07:28:44.289Z,84.48
2018-06-29T07:29:44.758Z,84.37
2018-06-29T07:30:45.237Z,84.26
2018-06-29T07:31:45.903Z,84.29
2018-06-29T07:32:46.171Z,84.29
2018-06-29T07:33:46.641Z,84.36
2018-06-29T07:34:47.113Z,84.34
2018-06-29T07:35:47.584Z,84.34
2018-06-29T07:36:48.059Z,84.18
2018-06-29T07:37:48.529Z,84.12
2018-06-29T07:38:49.000Z,84.17
2018-06-29T07:39:49.474Z,84.13
2018-06-29T07:40:49.995Z,84.24
2018-06-29T07:41:50.416Z,84.36
2018-06-29T07:42:50.887Z,84.37
2018-06-29T07:43:51.360Z,84.32
2018-06-29T07:44:51.831Z,84.23
2018-06-29T07:45:52.306Z,84.12
2018-06-29T07:46:52.777Z,84.20
2018-06-29T07:47:53.258Z,84.31
2018-06-29T07:48:53.724Z,84.30
2018-06-29T07:49:54.197Z,84.34
2018-06-29T07:50:54.723Z,84.32
2018-06-29T07:51:55.143Z,84.26
2018-06-29T07:52:55.674Z,84.08
2018-06-29T07:53:56.091Z,84.13
2018-06-29T07:54:56.561Z,84.07
2018-06-29T07:55:57.089Z,84.04
2018-06-29T07:56:57.511Z,84.09
2018-06-29T07:57:57.984Z,84.20
2018-06-29T07:58:58.456Z,84.41
2018-06-29T07:59:58.938Z,84.37
2018-06-29T08:00:59.424Z,84.35
2018-06-29T08:01:59.880Z,84.35
2018-06-29T08:03:00.353Z,84.27
2018-06-29T08:04:00.894Z,84.11
2018-06-29T08:05:01.350Z,84.09
2018-06-29T08:06:01.776Z,84.05
2018-06-29T08:07:02.251Z,84.09
2018-06-29T08:08:02.724Z,84.02
2018-06-29T08:09:03.197Z,84.03
2018-06-29T08:10:03.670Z,84.08
2018-06-29T08:11:04.146Z,84.02
2018-06-29T08:12:04.617Z,83.93
2018-06-29T08:13:05.094Z,83.89
2018-06-29T08:14:05.563Z,83.92
2018-06-29T08:15:06.037Z,83.84
2018-06-29T08:16:06.510Z,83.80
2018-06-29T08:17:06.984Z,83.73
2018-06-29T08:18:07.455Z,83.70
2018-06-29T08:19:07.931Z,83.66
2018-06-29T08:20:08.401Z,83.57
2018-06-29T08:21:08.872Z,83.60
2018-06-29T08:22:09.344Z,83.66
2018-06-29T08:23:09.814Z,83.57
2018-06-29T08:24:10.286Z,83.47
2018-06-29T08:25:10.760Z,83.38
2018-06-29T08:26:11.227Z,83.50
2018-06-29T08:27:11.702Z,83.55
2018-06-29T08:28:12.169Z,83.59
2018-06-29T08:29:12.646Z,83.47
2018-06-29T08:30:13.110Z,83.53
2018-06-29T08:31:13.632Z,83.50
2018-06-29T08:32:14.052Z,83.51
2018-06-29T08:33:14.525Z,83.38
2018-06-29T08:34:14.995Z,83.25
2018-06-29T08:35:15.474Z,83.25
2018-06-29T08:36:15.937Z,83.36
2018-06-29T08:38:16.877Z,83.42
2018-06-29T08:39:17.349Z,83.45
2018-06-29T08:40:17.819Z,83.49
2018-06-29T08:41:18.289Z,83.33
2018-06-29T08:42:18.759Z,83.17
2018-06-29T08:43:19.232Z,83.09
2018-06-29T08:44:19.737Z,83.05
2018-06-29T08:45:20.176Z,83.01
2018-06-29T08:46:20.694Z,83.07
2018-06-29T08:47:21.116Z,82.93
2018-06-29T08:48:21.587Z,82.80
2018-06-29T08:49:22.060Z,82.81
2018-06-29T08:50:22.530Z,82.73
2018-06-29T08:51:23.002Z,82.68
2018-06-29T08:52:23.475Z,82.55
2018-06-29T08:53:23.951Z,82.46
2018-06-29T08:54:24.420Z,82.46
2018-06-29T08:55:24.895Z,82.59
2018-06-29T08:56:25.366Z,82.62
2018-06-29T08:57:25.838Z,82.58
2018-06-29T08:58:26.310Z,82.30
2018-06-29T08:59:26.785Z,82.33
2018-06-29T09:00:27.258Z,82.22
2018-06-29T09:01:27.731Z,82.20
2018-06-29T09:02:28.206Z,82.20
2018-06-29T09:03:28.678Z,82.04
2018-06-29T09:04:29.154Z,82.04
2018-06-29T09:05:29.626Z,82.10
2018-06-29T09:06:30.098Z,82.05
2018-06-29T09:07:30.575Z,81.91
2018-06-29T09:08:31.048Z,81.92
2018-06-29T09:09:31.532Z,82.02
2018-06-29T09:10:31.997Z,81.88
2018-06-29T09:11:32.523Z,81.81
2018-06-29T09:12:32.945Z,81.84
2018-06-29T09:13:33.421Z,81.79
2018-06-29T09:14:33.899Z,81.75
2018-06-29T09:15:34.369Z,81.80
2018-06-29T09:16:34.844Z,81.59
2018-06-29T09:17:35.320Z,81.57
2018-06-29T09:18:35.791Z,81.67
2018-06-29T09:19:36.265Z,81.72
2018-06-29T09:20:36.739Z,81.75
2018-06-29T09:21:37.213Z,81.73
2018-06-29T09:22:37.685Z,81.69
2018-06-29T09:23:38.158Z,81.79
2018-06-29T09:24:38.636Z,81.77
2018-06-29T09:25:39.106Z,81.70
2018-06-29T09:26:39.578Z,81.66
2018-06-29T09:27:40.053Z,81.56
2018-06-29T09:28:40.522Z,81.57
2018-06-29T09:29:40.997Z,81.55
2018-06-29T09:30:41.467Z,81.60
2018-06-29T09:31:41.940Z,81.63
2018-06-29T09:32:42.412Z,81.58
2018-06-29T09:33:42.884Z,81.42
2018-06-29T09:34:43.359Z,81.38
2018-06-29T09:35:43.826Z,81.34
2018-06-29T09:36:44.297Z,81.35
2018-06-29T09:37:44.769Z,81.18
2018-06-29T09:38:45.239Z,81.23
2018-06-29T09:39:45.711Z,81.09
2018-06-29T09:40:46.181Z,81.03
2018-06-29T09:41:46.653Z,80.92
2018-06-29T09:42:47.123Z,81.02
2018-06-29T09:43:47.593Z,80.97
2018-06-29T09:44:48.065Z,80.86
2018-06-29T09:45:48.535Z,80.74
2018-06-29T09:46:49.007Z,80.60
2018-06-29T09:47:49.501Z,80.51
2018-06-29T09:48:49.948Z,80.49
2018-06-29T09:49:50.420Z,80.45
2018-06-29T09:50:50.890Z,80.38
2018-06-29T09:51:51.414Z,80.36
2018-06-29T09:52:51.834Z,80.25
2018-06-29T09:53:52.340Z,80.13
2018-06-29T09:54:52.776Z,80.06
2018-06-29T09:55:53.249Z,80.12
2018-06-29T09:56:53.723Z,80.08
2018-06-29T09:57:54.191Z,79.93
2018-06-29T09:58:54.664Z,79.96
2018-06-29T09:59:55.136Z,79.89
2018-06-29T10:00:55.716Z,79.72
2018-06-29T10:01:56.134Z,79.56
2018-06-29T10:02:56.554Z,79.51
2018-06-29T10:03:57.029Z,79.34
2018-06-29T10:04:57.499Z,79.32
2018-06-29T10:05:57.970Z,79.20
2018-06-29T10:06:58.449Z,79.13
2018-06-29T10:07:58.918Z,79.16
2018-06-29T10:08:59.393Z,79.16
2018-06-29T10:09:59.870Z,79.04
2018-06-29T10:11:00.340Z,78.99
2018-06-29T10:12:00.863Z,78.85
2018-06-29T10:13:01.287Z,78.85
2018-06-29T10:14:01.771Z,78.71
2018-06-29T10:15:02.235Z,78.61
2018-06-29T10:16:02.713Z,78.46
2018-06-29T10:17:03.187Z,78.49
2018-06-29T10:18:03.660Z,78.52
2018-06-29T10:19:04.139Z,78.38
2018-06-29T10:20:04.641Z,78.25
2018-06-29T10:21:05.084Z,78.28
2018-06-29T10:22:05.619Z,78.36
2018-06-29T10:23:06.030Z,78.56
2018-06-29T10:24:06.849Z,78.54
2018-06-29T10:25:07.041Z,78.44
2018-06-29T10:26:07.460Z,78.44
2018-06-29T10:27:07.929Z,78.60
2018-06-29T10:28:08.533Z,78.40
2018-06-29T10:29:08.878Z,78.40
2018-06-29T10:30:09.352Z,78.30
2018-06-29T10:31:09.829Z,78.29
2018-06-29T10:32:10.350Z,78.36
2018-06-29T10:33:10.773Z,78.15
2018-06-29T10:34:11.245Z,78.05
2018-06-29T10:35:11.718Z,78.15
2018-06-29T10:36:12.193Z,78.13
2018-06-29T10:37:12.664Z,77.98
2018-06-29T10:38:13.137Z,77.98
2018-06-29T10:39:13.607Z,77.84
2018-06-29T10:40:14.083Z,77.87
2018-06-29T10:41:14.554Z,77.92
2018-06-29T10:42:15.028Z,77.95
2018-06-29T10:43:15.497Z,77.75
2018-06-29T10:44:15.971Z,77.70
2018-06-29T10:45:16.440Z,77.78
2018-06-29T10:46:16.912Z,77.83
2018-06-29T10:47:17.382Z,77.71
2018-06-29T10:48:17.854Z,77.62
2018-06-29T10:49:18.326Z,77.54
2018-06-29T10:50:18.802Z,77.65
2018-06-29T10:51:19.269Z,77.48
2018-06-29T10:52:19.794Z,77.38
2018-06-29T10:53:20.210Z,77.36
2018-06-29T10:54:20.679Z,77.41
2018-06-29T10:55:21.168Z,77.26
2018-06-29T10:56:21.623Z,77.21
2018-06-29T10:57:22.096Z,77.19
2018-06-29T10:58:22.566Z,77.24
2018-06-29T10:59:23.036Z,77.12
2018-06-29T11:00:23.509Z,77.28
2018-06-29T11:01:23.980Z,77.20
2018-06-29T11:02:24.452Z,77.16
2018-06-29T11:03:24.922Z,76.98
2018-06-29T11:04:25.401Z,76.96
2018-06-29T11:05:25.870Z,77.09
2018-06-29T11:06:26.340Z,77.05
2018-06-29T11:07:26.810Z,77.05
2018-06-29T11:08:27.284Z,76.96
2018-06-29T11:09:27.756Z,76.93
2018-06-29T11:10:28.229Z,76.94
2018-06-29T11:11:28.701Z,76.79
2018-06-29T11:12:29.174Z,76.79
2018-06-29T11:13:29.649Z,76.70
2018-06-29T11:14:30.120Z,76.60
2018-06-29T11:15:30.599Z,76.56
2018-06-29T11:16:31.069Z,76.71
2018-06-29T11:17:31.595Z,76.62
2018-06-29T11:18:32.018Z,76.57
2018-06-29T11:19:32.490Z,76.52
2018-06-29T11:20:32.967Z,76.45
2018-06-29T11:21:33.441Z,76.41
2018-06-29T11:22:33.990Z,76.51
2018-06-29T11:23:34.391Z,76.62
2018-06-29T11:24:34.868Z,76.42
2018-06-29T11:25:35.341Z,76.19
2018-06-29T11:26:35.816Z,76.09
2018-06-29T11:27:36.292Z,75.97
2018-06-29T11:28:36.766Z,75.95
2018-06-29T11:29:37.241Z,75.87
2018-06-29T11:30:37.716Z,75.85
2018-06-29T11:31:38.193Z,75.93
2018-06-29T11:32:38.664Z,75.88
2018-06-29T11:33:39.140Z,75.91
2018-06-29T11:34:39.613Z,75.61
2018-06-29T11:35:40.088Z,75.53
2018-06-29T11:36:40.576Z,75.48
2018-06-29T11:37:41.037Z,75.41
2018-06-29T11:38:41.512Z,75.41
2018-06-29T11:39:41.984Z,75.44
2018-06-29T11:40:42.458Z,75.52
2018-06-29T11:41:42.931Z,75.50
2018-06-29T11:42:43.459Z,75.53
2018-06-29T11:43:43.878Z,75.38
2018-06-29T11:44:44.349Z,75.38
2018-06-29T11:45:44.827Z,75.48
2018-06-29T11:46:45.297Z,75.51
2018-06-29T11:47:45.769Z,75.57
2018-06-29T11:48:46.301Z,75.57
2018-06-29T11:49:46.717Z,75.36
2018-06-29T11:50:47.187Z,75.49
2018-06-29T11:51:47.658Z,75.42
2018-06-29T11:52:48.181Z,75.31
2018-06-29T11:53:48.603Z,75.27
2018-06-29T11:54:49.075Z,75.19
2018-06-29T11:55:49.543Z,75.27
2018-06-29T11:56:50.016Z,75.38
2018-06-29T11:57:50.489Z,75.40
2018-06-29T11:58:50.961Z,75.33
2018-06-29T11:59:51.430Z,75.23
2018-06-29T12:00:51.908Z,75.15
2018-06-29T12:01:52.372Z,75.02
2018-06-29T12:02:52.848Z,74.97
2018-06-29T12:03:53.315Z,75.13
2018-06-29T12:04:53.784Z,75.08
2018-06-29T12:05:54.258Z,75.08
2018-06-29T12:06:54.930Z,75.03
2018-06-29T12:07:55.198Z,74.95
2018-06-29T12:08:55.670Z,75.00
2018-06-29T12:09:56.142Z,74.88
2018-06-29T12:10:56.614Z,74.83
2018-06-29T12:11:57.086Z,74.88
2018-06-29T12:12:57.557Z,74.75
2018-06-29T12:13:58.029Z,74.75
2018-06-29T12:14:58.562Z,74.70
2018-06-29T12:15:58.972Z,74.70
2018-06-29T12:16:59.448Z,74.60
2018-06-29T12:17:59.918Z,74.60
2018-06-29T12:19:00.393Z,74.55
2018-06-29T12:20:00.861Z,74.60
2018-06-29T12:21:01.336Z,74.47
2018-06-29T12:22:01.809Z,74.55
2018-06-29T12:23:02.281Z,74.55
2018-06-29T12:24:02.758Z,74.47
2018-06-29T12:25:03.228Z,74.45
2018-06-29T12:26:03.704Z,74.40
2018-06-29T12:27:04.180Z,74.45
2018-06-29T12:28:04.675Z,74.40
2018-06-29T12:29:05.124Z,74.32
2018-06-29T12:30:05.601Z,74.38
2018-06-29T12:31:06.075Z,74.40
2018-06-29T12:32:06.549Z,74.22
2018-06-29T12:33:07.026Z,74.22
2018-06-29T12:34:07.499Z,74.25
2018-06-29T12:35:07.975Z,74.33
2018-06-29T12:36:08.447Z,74.33
2018-06-29T12:37:08.923Z,74.23
2018-06-29T12:38:09.398Z,74.25
2018-06-29T12:39:09.873Z,74.20
2018-06-29T12:40:10.346Z,74.31
2018-06-29T12:41:10.823Z,74.18
2018-06-29T12:42:11.298Z,74.26
2018-06-29T12:43:11.774Z,74.26
2018-06-29T12:44:12.244Z,74.21
2018-06-29T12:45:12.752Z,74.21
2018-06-29T12:46:13.271Z,74.16
2018-06-29T12:47:13.670Z,74.16
2018-06-29T12:48:14.141Z,74.16
2018-06-29T12:49:14.615Z,74.16
2018-06-29T12:50:15.090Z,74.14
2018-06-29T12:51:15.562Z,74.22
2018-06-29T12:52:16.035Z,74.09
2018-06-29T12:53:16.510Z,74.04
2018-06-29T12:54:16.984Z,74.17
2018-06-29T12:55:17.457Z,73.99
2018-06-29T12:56:17.929Z,73.91
2018-06-29T12:57:18.417Z,73.86
2018-06-29T12:58:18.929Z,73.91
2018-06-29T12:59:19.347Z,73.89
2018-06-29T13:00:19.818Z,73.76
2018-06-29T13:01:20.338Z,73.76
2018-06-29T13:02:20.763Z,73.81